sensor_id;sensor_type;location;lat;lon;timestamp;P1;durP1;ratioP1;P2;durP2;ratioP2
57605;SDS011;43430;48.204;11.556;2023-06-26T00:01:28;11.10;;;6.43;;
57605;SDS011;43430;48.204;11.556;2023-06-26T00:03:54;10.27;;;6.05;;
57605;SDS011;43430;48.204;11.556;2023-06-26T00:06:20;11.68;;;6.80;;
57605;SDS011;43430;48.204;11.556;2023-06-26T00:08:46;11.15;;;6.05;;
57605;SDS011;43430;48.204;11.556;2023-06-26T00:11:11;12.90;;;6.68;;
57605;SDS011;43430;48.204;11.556;2023-06-26T00:13:36;12.48;;;6.75;;
57605;SDS011;43430;48.204;11.556;2023-06-26T00:16:02;9.88;;;6.40;;
57605;SDS011;43430;48.204;11.556;2023-06-26T00:18:28;10.52;;;6.20;;
57605;SDS011;43430;48.204;11.556;2023-06-26T00:20:54;11.50;;;6.55;;
57605;SDS011;43430;48.204;11.556;2023-06-26T00:23:19;9.00;;;5.85;;
57605;SDS011;43430;48.204;11.556;2023-06-26T00:25:45;10.45;;;5.95;;
57605;SDS011;43430;48.204;11.556;2023-06-26T00:28:10;11.35;;;6.18;;
57605;SDS011;43430;48.204;11.556;2023-06-26T00:30:35;9.88;;;6.40;;
57605;SDS011;43430;48.204;11.556;2023-06-26T00:33:01;11.85;;;6.60;;
57605;SDS011;43430;48.204;11.556;2023-06-26T00:35:26;11.70;;;6.82;;
57605;SDS011;43430;48.204;11.556;2023-06-26T00:37:52;10.05;;;5.85;;
57605;SDS011;43430;48.204;11.556;2023-06-26T00:40:17;10.95;;;5.80;;
57605;SDS011;43430;48.204;11.556;2023-06-26T00:42:43;11.60;;;6.47;;
57605;SDS011;43430;48.204;11.556;2023-06-26T00:45:08;10.60;;;5.70;;
57605;SDS011;43430;48.204;11.556;2023-06-26T00:47:33;9.45;;;6.10;;
57605;SDS011;43430;48.204;11.556;2023-06-26T00:49:59;11.18;;;6.30;;
57605;SDS011;43430;48.204;11.556;2023-06-26T00:52:24;11.48;;;6.32;;
57605;SDS011;43430;48.204;11.556;2023-06-26T00:54:50;9.57;;;6.15;;
57605;SDS011;43430;48.204;11.556;2023-06-26T00:57:16;12.60;;;6.60;;
57605;SDS011;43430;48.204;11.556;2023-06-26T00:59:42;9.15;;;5.63;;
57605;SDS011;43430;48.204;11.556;2023-06-26T01:02:08;11.73;;;6.07;;
57605;SDS011;43430;48.204;11.556;2023-06-26T01:04:34;11.50;;;6.93;;
57605;SDS011;43430;48.204;11.556;2023-06-26T01:07:00;10.38;;;6.35;;
57605;SDS011;43430;48.204;11.556;2023-06-26T01:09:27;10.63;;;6.25;;
57605;SDS011;43430;48.204;11.556;2023-06-26T01:11:53;10.48;;;6.90;;
57605;SDS011;43430;48.204;11.556;2023-06-26T01:14:19;9.75;;;6.55;;
57605;SDS011;43430;48.204;11.556;2023-06-26T01:16:45;10.20;;;5.82;;
57605;SDS011;43430;48.204;11.556;2023-06-26T01:19:25;11.25;;;6.00;;
57605;SDS011;43430;48.204;11.556;2023-06-26T01:24:31;11.00;;;6.93;;
57605;SDS011;43430;48.204;11.556;2023-06-26T01:27:02;9.88;;;5.68;;
57605;SDS011;43430;48.204;11.556;2023-06-26T01:29:29;10.18;;;6.53;;
57605;SDS011;43430;48.204;11.556;2023-06-26T01:31:56;10.27;;;6.15;;
57605;SDS011;43430;48.204;11.556;2023-06-26T01:34:22;11.40;;;7.05;;
57605;SDS011;43430;48.204;11.556;2023-06-26T01:36:47;8.52;;;5.82;;
57605;SDS011;43430;48.204;11.556;2023-06-26T01:39:18;12.68;;;7.15;;
57605;SDS011;43430;48.204;11.556;2023-06-26T01:41:44;13.98;;;6.88;;
57605;SDS011;43430;48.204;11.556;2023-06-26T01:44:16;10.43;;;6.05;;
57605;SDS011;43430;48.204;11.556;2023-06-26T01:47:01;11.57;;;6.90;;
57605;SDS011;43430;48.204;11.556;2023-06-26T01:49:30;9.10;;;5.95;;
57605;SDS011;43430;48.204;11.556;2023-06-26T01:52:14;9.77;;;6.38;;
57605;SDS011;43430;48.204;11.556;2023-06-26T01:57:33;9.15;;;5.95;;
57605;SDS011;43430;48.204;11.556;2023-06-26T02:00:01;8.95;;;6.13;;
57605;SDS011;43430;48.204;11.556;2023-06-26T02:02:28;10.45;;;6.53;;
57605;SDS011;43430;48.204;11.556;2023-06-26T02:04:54;11.05;;;6.50;;
57605;SDS011;43430;48.204;11.556;2023-06-26T02:07:19;9.27;;;5.97;;
57605;SDS011;43430;48.204;11.556;2023-06-26T02:09:44;10.90;;;5.75;;
57605;SDS011;43430;48.204;11.556;2023-06-26T02:12:10;12.43;;;6.55;;
57605;SDS011;43430;48.204;11.556;2023-06-26T02:14:35;10.65;;;5.88;;
57605;SDS011;43430;48.204;11.556;2023-06-26T02:17:02;9.98;;;6.60;;
57605;SDS011;43430;48.204;11.556;2023-06-26T02:19:27;10.60;;;6.32;;
57605;SDS011;43430;48.204;11.556;2023-06-26T02:21:53;9.60;;;6.05;;
57605;SDS011;43430;48.204;11.556;2023-06-26T02:24:19;11.15;;;6.57;;
57605;SDS011;43430;48.204;11.556;2023-06-26T02:26:44;11.60;;;7.07;;
57605;SDS011;43430;48.204;11.556;2023-06-26T02:29:10;12.15;;;6.45;;
57605;SDS011;43430;48.204;11.556;2023-06-26T02:31:36;10.55;;;6.13;;
57605;SDS011;43430;48.204;11.556;2023-06-26T02:34:01;11.05;;;7.18;;
57605;SDS011;43430;48.204;11.556;2023-06-26T02:36:27;11.70;;;6.57;;
57605;SDS011;43430;48.204;11.556;2023-06-26T02:38:52;9.98;;;6.22;;
57605;SDS011;43430;48.204;11.556;2023-06-26T02:41:18;10.18;;;6.53;;
57605;SDS011;43430;48.204;11.556;2023-06-26T02:43:43;10.93;;;6.68;;
57605;SDS011;43430;48.204;11.556;2023-06-26T02:46:08;11.23;;;6.80;;
57605;SDS011;43430;48.204;11.556;2023-06-26T02:48:33;11.70;;;7.50;;
57605;SDS011;43430;48.204;11.556;2023-06-26T02:50:59;10.82;;;6.32;;
57605;SDS011;43430;48.204;11.556;2023-06-26T02:53:24;9.32;;;6.22;;
57605;SDS011;43430;48.204;11.556;2023-06-26T02:55:49;11.10;;;6.63;;
57605;SDS011;43430;48.204;11.556;2023-06-26T02:58:15;10.00;;;5.93;;
57605;SDS011;43430;48.204;11.556;2023-06-26T03:00:40;13.52;;;6.90;;
57605;SDS011;43430;48.204;11.556;2023-06-26T03:03:06;10.65;;;7.15;;
57605;SDS011;43430;48.204;11.556;2023-06-26T03:05:32;11.48;;;6.72;;
57605;SDS011;43430;48.204;11.556;2023-06-26T03:07:57;9.88;;;6.00;;
57605;SDS011;43430;48.204;11.556;2023-06-26T03:10:22;12.25;;;6.63;;
57605;SDS011;43430;48.204;11.556;2023-06-26T03:12:48;10.20;;;6.38;;
57605;SDS011;43430;48.204;11.556;2023-06-26T03:15:13;11.73;;;7.50;;
57605;SDS011;43430;48.204;11.556;2023-06-26T03:17:39;14.15;;;6.88;;
57605;SDS011;43430;48.204;11.556;2023-06-26T03:20:05;9.43;;;6.00;;
57605;SDS011;43430;48.204;11.556;2023-06-26T03:22:32;12.27;;;6.65;;
57605;SDS011;43430;48.204;11.556;2023-06-26T03:24:58;12.02;;;6.45;;
57605;SDS011;43430;48.204;11.556;2023-06-26T03:27:23;10.90;;;6.97;;
57605;SDS011;43430;48.204;11.556;2023-06-26T03:29:48;10.43;;;6.75;;
57605;SDS011;43430;48.204;11.556;2023-06-26T03:32:14;10.10;;;6.32;;
57605;SDS011;43430;48.204;11.556;2023-06-26T03:34:39;12.63;;;6.72;;
57605;SDS011;43430;48.204;11.556;2023-06-26T03:37:05;11.13;;;5.97;;
57605;SDS011;43430;48.204;11.556;2023-06-26T03:39:30;11.38;;;7.32;;
57605;SDS011;43430;48.204;11.556;2023-06-26T03:41:55;12.35;;;7.00;;
57605;SDS011;43430;48.204;11.556;2023-06-26T03:44:25;11.90;;;6.60;;
57605;SDS011;43430;48.204;11.556;2023-06-26T03:46:50;12.55;;;7.07;;
57605;SDS011;43430;48.204;11.556;2023-06-26T03:49:16;10.73;;;6.60;;
57605;SDS011;43430;48.204;11.556;2023-06-26T03:51:41;11.90;;;6.72;;
57605;SDS011;43430;48.204;11.556;2023-06-26T03:54:07;11.55;;;6.65;;
57605;SDS011;43430;48.204;11.556;2023-06-26T03:56:32;10.35;;;6.78;;
57605;SDS011;43430;48.204;11.556;2023-06-26T03:58:57;9.60;;;6.07;;
57605;SDS011;43430;48.204;11.556;2023-06-26T04:01:23;9.45;;;6.22;;
57605;SDS011;43430;48.204;11.556;2023-06-26T04:03:48;11.52;;;6.07;;
57605;SDS011;43430;48.204;11.556;2023-06-26T04:06:13;11.38;;;6.32;;
57605;SDS011;43430;48.204;11.556;2023-06-26T04:08:39;9.38;;;6.25;;
57605;SDS011;43430;48.204;11.556;2023-06-26T04:11:04;11.75;;;6.97;;
57605;SDS011;43430;48.204;11.556;2023-06-26T04:13:29;13.68;;;6.38;;
57605;SDS011;43430;48.204;11.556;2023-06-26T04:15:55;10.98;;;6.20;;
57605;SDS011;43430;48.204;11.556;2023-06-26T04:18:20;10.95;;;5.90;;
57605;SDS011;43430;48.204;11.556;2023-06-26T04:21:05;9.70;;;6.00;;
57605;SDS011;43430;48.204;11.556;2023-06-26T04:23:32;9.75;;;5.93;;
57605;SDS011;43430;48.204;11.556;2023-06-26T04:25:58;9.05;;;5.90;;
57605;SDS011;43430;48.204;11.556;2023-06-26T04:28:24;9.52;;;5.82;;
57605;SDS011;43430;48.204;11.556;2023-06-26T04:30:49;11.00;;;6.50;;
57605;SDS011;43430;48.204;11.556;2023-06-26T04:33:15;10.18;;;5.72;;
57605;SDS011;43430;48.204;11.556;2023-06-26T04:35:40;10.55;;;6.18;;
57605;SDS011;43430;48.204;11.556;2023-06-26T04:38:06;8.70;;;6.00;;
57605;SDS011;43430;48.204;11.556;2023-06-26T04:40:31;8.98;;;5.72;;
57605;SDS011;43430;48.204;11.556;2023-06-26T04:42:56;8.63;;;5.75;;
57605;SDS011;43430;48.204;11.556;2023-06-26T04:45:22;8.68;;;6.07;;
57605;SDS011;43430;48.204;11.556;2023-06-26T04:47:47;9.77;;;6.32;;
57605;SDS011;43430;48.204;11.556;2023-06-26T04:50:12;8.55;;;5.20;;
57605;SDS011;43430;48.204;11.556;2023-06-26T04:52:38;9.45;;;5.93;;
57605;SDS011;43430;48.204;11.556;2023-06-26T04:55:03;8.68;;;5.82;;
57605;SDS011;43430;48.204;11.556;2023-06-26T04:57:29;10.75;;;5.85;;
57605;SDS011;43430;48.204;11.556;2023-06-26T04:59:54;8.68;;;5.97;;
57605;SDS011;43430;48.204;11.556;2023-06-26T05:02:19;9.02;;;5.82;;
57605;SDS011;43430;48.204;11.556;2023-06-26T05:04:45;10.60;;;6.28;;
57605;SDS011;43430;48.204;11.556;2023-06-26T05:07:12;8.10;;;5.60;;
57605;SDS011;43430;48.204;11.556;2023-06-26T05:09:37;10.10;;;5.85;;
57605;SDS011;43430;48.204;11.556;2023-06-26T05:12:02;8.10;;;5.93;;
57605;SDS011;43430;48.204;11.556;2023-06-26T05:14:28;8.93;;;5.43;;
57605;SDS011;43430;48.204;11.556;2023-06-26T05:16:53;8.23;;;5.93;;
57605;SDS011;43430;48.204;11.556;2023-06-26T05:19:19;8.90;;;6.18;;
57605;SDS011;43430;48.204;11.556;2023-06-26T05:21:44;9.70;;;5.88;;
57605;SDS011;43430;48.204;11.556;2023-06-26T05:24:10;8.80;;;5.60;;
57605;SDS011;43430;48.204;11.556;2023-06-26T05:26:38;7.97;;;5.22;;
57605;SDS011;43430;48.204;11.556;2023-06-26T05:29:03;9.43;;;6.20;;
57605;SDS011;43430;48.204;11.556;2023-06-26T05:31:30;8.18;;;6.13;;
57605;SDS011;43430;48.204;11.556;2023-06-26T05:34:00;7.50;;;5.60;;
57605;SDS011;43430;48.204;11.556;2023-06-26T05:36:28;8.68;;;5.63;;
57605;SDS011;43430;48.204;11.556;2023-06-26T05:38:58;8.00;;;5.57;;
57605;SDS011;43430;48.204;11.556;2023-06-26T05:41:24;9.75;;;5.75;;
57605;SDS011;43430;48.204;11.556;2023-06-26T05:43:49;7.57;;;5.53;;
57605;SDS011;43430;48.204;11.556;2023-06-26T05:46:14;7.30;;;5.63;;
57605;SDS011;43430;48.204;11.556;2023-06-26T05:48:40;8.20;;;5.30;;
57605;SDS011;43430;48.204;11.556;2023-06-26T05:51:05;7.40;;;5.53;;
57605;SDS011;43430;48.204;11.556;2023-06-26T05:53:31;7.32;;;5.25;;
57605;SDS011;43430;48.204;11.556;2023-06-26T05:55:57;9.02;;;5.85;;
57605;SDS011;43430;48.204;11.556;2023-06-26T05:58:23;8.77;;;5.80;;
57605;SDS011;43430;48.204;11.556;2023-06-26T06:00:53;7.90;;;5.57;;
57605;SDS011;43430;48.204;11.556;2023-06-26T06:03:18;7.22;;;5.60;;
57605;SDS011;43430;48.204;11.556;2023-06-26T06:05:44;7.50;;;5.70;;
57605;SDS011;43430;48.204;11.556;2023-06-26T06:08:09;6.93;;;5.03;;
57605;SDS011;43430;48.204;11.556;2023-06-26T06:10:34;8.98;;;5.60;;
57605;SDS011;43430;48.204;11.556;2023-06-26T06:13:00;8.43;;;5.68;;
57605;SDS011;43430;48.204;11.556;2023-06-26T06:15:25;10.15;;;5.78;;
57605;SDS011;43430;48.204;11.556;2023-06-26T06:17:51;8.75;;;5.45;;
57605;SDS011;43430;48.204;11.556;2023-06-26T06:20:17;9.45;;;5.55;;
57605;SDS011;43430;48.204;11.556;2023-06-26T06:22:44;8.90;;;5.40;;
57605;SDS011;43430;48.204;11.556;2023-06-26T06:25:10;7.90;;;5.68;;
57605;SDS011;43430;48.204;11.556;2023-06-26T06:27:35;7.18;;;5.00;;
57605;SDS011;43430;48.204;11.556;2023-06-26T06:30:00;8.20;;;5.90;;
57605;SDS011;43430;48.204;11.556;2023-06-26T06:32:26;9.18;;;5.70;;
57605;SDS011;43430;48.204;11.556;2023-06-26T06:34:51;8.55;;;4.90;;
57605;SDS011;43430;48.204;11.556;2023-06-26T06:37:16;6.85;;;4.97;;
57605;SDS011;43430;48.204;11.556;2023-06-26T06:39:42;7.78;;;4.93;;
57605;SDS011;43430;48.204;11.556;2023-06-26T06:42:07;9.20;;;5.25;;
57605;SDS011;43430;48.204;11.556;2023-06-26T06:44:33;7.63;;;5.53;;
57605;SDS011;43430;48.204;11.556;2023-06-26T06:46:58;6.63;;;5.10;;
57605;SDS011;43430;48.204;11.556;2023-06-26T06:49:24;7.57;;;5.20;;
57605;SDS011;43430;48.204;11.556;2023-06-26T06:51:49;6.80;;;5.10;;
57605;SDS011;43430;48.204;11.556;2023-06-26T06:54:15;7.05;;;4.72;;
57605;SDS011;43430;48.204;11.556;2023-06-26T06:56:41;8.00;;;5.10;;
57605;SDS011;43430;48.204;11.556;2023-06-26T06:59:07;6.68;;;4.72;;
57605;SDS011;43430;48.204;11.556;2023-06-26T07:01:32;7.50;;;4.40;;
57605;SDS011;43430;48.204;11.556;2023-06-26T07:03:58;6.90;;;4.80;;
57605;SDS011;43430;48.204;11.556;2023-06-26T07:06:23;10.38;;;5.20;;
57605;SDS011;43430;48.204;11.556;2023-06-26T07:08:48;6.95;;;4.68;;
57605;SDS011;43430;48.204;11.556;2023-06-26T07:11:14;7.60;;;4.97;;
57605;SDS011;43430;48.204;11.556;2023-06-26T07:13:40;8.52;;;4.65;;
57605;SDS011;43430;48.204;11.556;2023-06-26T07:16:05;6.60;;;4.57;;
57605;SDS011;43430;48.204;11.556;2023-06-26T07:18:31;6.97;;;4.72;;
57605;SDS011;43430;48.204;11.556;2023-06-26T07:20:56;8.10;;;5.22;;
57605;SDS011;43430;48.204;11.556;2023-06-26T07:23:21;7.80;;;5.10;;
57605;SDS011;43430;48.204;11.556;2023-06-26T07:25:47;8.43;;;4.63;;
57605;SDS011;43430;48.204;11.556;2023-06-26T07:28:12;6.32;;;4.65;;
57605;SDS011;43430;48.204;11.556;2023-06-26T07:30:38;12.15;;;5.20;;
57605;SDS011;43430;48.204;11.556;2023-06-26T07:33:03;8.23;;;5.60;;
57605;SDS011;43430;48.204;11.556;2023-06-26T07:35:29;7.10;;;4.75;;
57605;SDS011;43430;48.204;11.556;2023-06-26T07:37:54;7.25;;;5.40;;
57605;SDS011;43430;48.204;11.556;2023-06-26T07:40:20;7.78;;;4.85;;
57605;SDS011;43430;48.204;11.556;2023-06-26T07:42:45;6.80;;;5.15;;
57605;SDS011;43430;48.204;11.556;2023-06-26T07:45:11;6.20;;;4.70;;
57605;SDS011;43430;48.204;11.556;2023-06-26T07:47:37;6.50;;;4.95;;
57605;SDS011;43430;48.204;11.556;2023-06-26T07:50:03;6.40;;;5.07;;
57605;SDS011;43430;48.204;11.556;2023-06-26T07:52:28;6.57;;;5.03;;
57605;SDS011;43430;48.204;11.556;2023-06-26T07:54:55;6.65;;;4.80;;
57605;SDS011;43430;48.204;11.556;2023-06-26T07:57:21;6.68;;;4.97;;
57605;SDS011;43430;48.204;11.556;2023-06-26T07:59:46;7.70;;;5.22;;
57605;SDS011;43430;48.204;11.556;2023-06-26T08:02:11;8.02;;;5.50;;
57605;SDS011;43430;48.204;11.556;2023-06-26T08:04:37;6.88;;;5.18;;
57605;SDS011;43430;48.204;11.556;2023-06-26T08:07:02;8.10;;;5.25;;
57605;SDS011;43430;48.204;11.556;2023-06-26T08:09:31;8.10;;;5.72;;
57605;SDS011;43430;48.204;11.556;2023-06-26T08:11:57;6.15;;;4.68;;
57605;SDS011;43430;48.204;11.556;2023-06-26T08:14:23;6.80;;;4.88;;
57605;SDS011;43430;48.204;11.556;2023-06-26T08:16:49;7.70;;;5.82;;
57605;SDS011;43430;48.204;11.556;2023-06-26T08:19:15;8.15;;;6.03;;
57605;SDS011;43430;48.204;11.556;2023-06-26T08:21:41;8.85;;;5.85;;
57605;SDS011;43430;48.204;11.556;2023-06-26T08:24:10;6.53;;;5.15;;
57605;SDS011;43430;48.204;11.556;2023-06-26T08:26:36;6.35;;;5.25;;
57605;SDS011;43430;48.204;11.556;2023-06-26T08:29:02;7.60;;;5.20;;
57605;SDS011;43430;48.204;11.556;2023-06-26T08:31:35;8.32;;;5.10;;
57605;SDS011;43430;48.204;11.556;2023-06-26T08:34:04;8.07;;;5.10;;
57605;SDS011;43430;48.204;11.556;2023-06-26T08:36:30;9.50;;;5.80;;
57605;SDS011;43430;48.204;11.556;2023-06-26T08:38:56;7.43;;;5.25;;
57605;SDS011;43430;48.204;11.556;2023-06-26T08:41:22;7.03;;;5.38;;
57605;SDS011;43430;48.204;11.556;2023-06-26T08:43:47;6.47;;;4.68;;
57605;SDS011;43430;48.204;11.556;2023-06-26T08:46:13;7.80;;;5.60;;
57605;SDS011;43430;48.204;11.556;2023-06-26T08:48:39;8.80;;;5.50;;
57605;SDS011;43430;48.204;11.556;2023-06-26T08:51:11;8.63;;;5.68;;
57605;SDS011;43430;48.204;11.556;2023-06-26T08:53:40;6.90;;;5.65;;
57605;SDS011;43430;48.204;11.556;2023-06-26T08:56:15;8.48;;;5.45;;
57605;SDS011;43430;48.204;11.556;2023-06-26T08:58:43;7.78;;;4.80;;
57605;SDS011;43430;48.204;11.556;2023-06-26T09:01:09;9.15;;;5.25;;
57605;SDS011;43430;48.204;11.556;2023-06-26T09:03:35;7.43;;;4.78;;
57605;SDS011;43430;48.204;11.556;2023-06-26T09:06:01;6.35;;;4.80;;
57605;SDS011;43430;48.204;11.556;2023-06-26T09:08:27;6.68;;;5.15;;
57605;SDS011;43430;48.204;11.556;2023-06-26T09:10:52;5.53;;;4.63;;
57605;SDS011;43430;48.204;11.556;2023-06-26T09:13:18;6.35;;;5.00;;
57605;SDS011;43430;48.204;11.556;2023-06-26T09:15:43;6.07;;;4.90;;
57605;SDS011;43430;48.204;11.556;2023-06-26T09:18:09;6.60;;;5.10;;
57605;SDS011;43430;48.204;11.556;2023-06-26T09:20:35;7.75;;;5.43;;
57605;SDS011;43430;48.204;11.556;2023-06-26T09:23:01;5.28;;;4.65;;
57605;SDS011;43430;48.204;11.556;2023-06-26T09:25:28;8.85;;;4.63;;
57605;SDS011;43430;48.204;11.556;2023-06-26T09:27:54;8.90;;;5.28;;
57605;SDS011;43430;48.204;11.556;2023-06-26T09:30:20;5.47;;;4.22;;
57605;SDS011;43430;48.204;11.556;2023-06-26T09:32:45;6.30;;;4.28;;
57605;SDS011;43430;48.204;11.556;2023-06-26T09:35:11;5.90;;;4.75;;
57605;SDS011;43430;48.204;11.556;2023-06-26T09:37:37;6.03;;;4.50;;
57605;SDS011;43430;48.204;11.556;2023-06-26T09:40:02;5.50;;;4.47;;
57605;SDS011;43430;48.204;11.556;2023-06-26T09:42:29;7.10;;;5.05;;
57605;SDS011;43430;48.204;11.556;2023-06-26T09:44:55;4.90;;;4.07;;
57605;SDS011;43430;48.204;11.556;2023-06-26T09:47:21;5.97;;;4.40;;
57605;SDS011;43430;48.204;11.556;2023-06-26T09:49:46;4.65;;;3.95;;
57605;SDS011;43430;48.204;11.556;2023-06-26T09:52:16;5.50;;;4.30;;
57605;SDS011;43430;48.204;11.556;2023-06-26T09:54:42;8.20;;;4.57;;
57605;SDS011;43430;48.204;11.556;2023-06-26T09:57:12;4.78;;;4.15;;
57605;SDS011;43430;48.204;11.556;2023-06-26T09:59:39;8.20;;;4.43;;
57605;SDS011;43430;48.204;11.556;2023-06-26T10:02:05;4.60;;;4.05;;
57605;SDS011;43430;48.204;11.556;2023-06-26T10:04:31;5.05;;;4.25;;
57605;SDS011;43430;48.204;11.556;2023-06-26T10:06:58;5.05;;;3.72;;
57605;SDS011;43430;48.204;11.556;2023-06-26T10:09:25;5.93;;;4.20;;
57605;SDS011;43430;48.204;11.556;2023-06-26T10:11:56;4.95;;;3.88;;
57605;SDS011;43430;48.204;11.556;2023-06-26T10:14:26;5.95;;;3.65;;
57605;SDS011;43430;48.204;11.556;2023-06-26T10:16:52;6.32;;;4.30;;
57605;SDS011;43430;48.204;11.556;2023-06-26T10:19:23;4.60;;;3.72;;
57605;SDS011;43430;48.204;11.556;2023-06-26T10:21:52;5.13;;;3.80;;
57605;SDS011;43430;48.204;11.556;2023-06-26T10:24:18;5.47;;;4.30;;
57605;SDS011;43430;48.204;11.556;2023-06-26T10:26:45;4.88;;;4.25;;
57605;SDS011;43430;48.204;11.556;2023-06-26T10:29:15;4.88;;;4.18;;
57605;SDS011;43430;48.204;11.556;2023-06-26T10:31:43;4.55;;;4.13;;
57605;SDS011;43430;48.204;11.556;2023-06-26T10:34:11;3.85;;;3.45;;
57605;SDS011;43430;48.204;11.556;2023-06-26T10:36:37;4.93;;;4.35;;
57605;SDS011;43430;48.204;11.556;2023-06-26T10:39:05;5.88;;;4.20;;
57605;SDS011;43430;48.204;11.556;2023-06-26T10:41:38;5.05;;;4.03;;
57605;SDS011;43430;48.204;11.556;2023-06-26T10:44:11;5.32;;;4.10;;
57605;SDS011;43430;48.204;11.556;2023-06-26T10:49:19;5.65;;;3.97;;
57605;SDS011;43430;48.204;11.556;2023-06-26T10:51:49;4.80;;;4.30;;
57605;SDS011;43430;48.204;11.556;2023-06-26T10:54:16;4.22;;;3.70;;
57605;SDS011;43430;48.204;11.556;2023-06-26T10:56:48;4.43;;;3.65;;
57605;SDS011;43430;48.204;11.556;2023-06-26T10:59:21;4.68;;;3.97;;
57605;SDS011;43430;48.204;11.556;2023-06-26T11:15:25;6.85;;;4.43;;
57605;SDS011;43430;48.204;11.556;2023-06-26T11:17:52;5.57;;;4.20;;
57605;SDS011;43430;48.204;11.556;2023-06-26T11:20:18;5.65;;;3.97;;
57605;SDS011;43430;48.204;11.556;2023-06-26T11:22:44;5.03;;;4.20;;
57605;SDS011;43430;48.204;11.556;2023-06-26T11:25:10;7.82;;;4.10;;
57605;SDS011;43430;48.204;11.556;2023-06-26T11:27:42;7.55;;;4.50;;
57605;SDS011;43430;48.204;11.556;2023-06-26T11:30:09;5.45;;;4.30;;
57605;SDS011;43430;48.204;11.556;2023-06-26T11:32:36;7.00;;;4.60;;
57605;SDS011;43430;48.204;11.556;2023-06-26T11:35:02;6.50;;;4.93;;
57605;SDS011;43430;48.204;11.556;2023-06-26T11:37:29;6.75;;;3.97;;
57605;SDS011;43430;48.204;11.556;2023-06-26T11:39:55;6.05;;;5.25;;
57605;SDS011;43430;48.204;11.556;2023-06-26T11:42:21;5.28;;;4.55;;
57605;SDS011;43430;48.204;11.556;2023-06-26T11:44:46;6.00;;;4.93;;
57605;SDS011;43430;48.204;11.556;2023-06-26T11:47:16;4.95;;;4.55;;
57605;SDS011;43430;48.204;11.556;2023-06-26T11:49:43;5.60;;;4.60;;
57605;SDS011;43430;48.204;11.556;2023-06-26T11:52:10;8.02;;;4.40;;
57605;SDS011;43430;48.204;11.556;2023-06-26T11:54:35;6.15;;;4.30;;
57605;SDS011;43430;48.204;11.556;2023-06-26T11:57:01;5.47;;;4.97;;
57605;SDS011;43430;48.204;11.556;2023-06-26T11:59:36;5.60;;;4.60;;
57605;SDS011;43430;48.204;11.556;2023-06-26T12:02:05;5.75;;;4.38;;
57605;SDS011;43430;48.204;11.556;2023-06-26T12:04:40;5.00;;;4.50;;
57605;SDS011;43430;48.204;11.556;2023-06-26T12:07:07;5.60;;;4.88;;
57605;SDS011;43430;48.204;11.556;2023-06-26T12:09:41;6.43;;;4.30;;
57605;SDS011;43430;48.204;11.556;2023-06-26T12:12:08;5.53;;;4.55;;
57605;SDS011;43430;48.204;11.556;2023-06-26T12:14:35;7.35;;;4.95;;
57605;SDS011;43430;48.204;11.556;2023-06-26T12:17:05;5.50;;;4.97;;
57605;SDS011;43430;48.204;11.556;2023-06-26T12:19:33;6.65;;;5.53;;
57605;SDS011;43430;48.204;11.556;2023-06-26T12:22:05;5.53;;;4.45;;
57605;SDS011;43430;48.204;11.556;2023-06-26T12:24:31;5.43;;;4.78;;
57605;SDS011;43430;48.204;11.556;2023-06-26T12:26:57;5.55;;;5.05;;
57605;SDS011;43430;48.204;11.556;2023-06-26T12:29:29;5.07;;;4.57;;
57605;SDS011;43430;48.204;11.556;2023-06-26T12:31:57;6.75;;;5.20;;
57605;SDS011;43430;48.204;11.556;2023-06-26T12:34:27;4.63;;;4.13;;
57605;SDS011;43430;48.204;11.556;2023-06-26T12:36:58;7.95;;;4.90;;
57605;SDS011;43430;48.204;11.556;2023-06-26T12:39:25;5.22;;;4.72;;
57605;SDS011;43430;48.204;11.556;2023-06-26T12:41:53;5.45;;;4.93;;
57605;SDS011;43430;48.204;11.556;2023-06-26T12:44:27;6.82;;;5.00;;
57605;SDS011;43430;48.204;11.556;2023-06-26T12:46:57;6.13;;;5.38;;
57605;SDS011;43430;48.204;11.556;2023-06-26T12:49:30;5.50;;;4.95;;
57605;SDS011;43430;48.204;11.556;2023-06-26T12:51:57;6.38;;;4.97;;
57605;SDS011;43430;48.204;11.556;2023-06-26T12:54:24;5.60;;;5.03;;
57605;SDS011;43430;48.204;11.556;2023-06-26T12:56:49;6.40;;;5.38;;
57605;SDS011;43430;48.204;11.556;2023-06-26T12:59:15;6.30;;;4.85;;
57605;SDS011;43430;48.204;11.556;2023-06-26T13:01:41;6.68;;;5.32;;
57605;SDS011;43430;48.204;11.556;2023-06-26T13:04:06;7.57;;;5.35;;
57605;SDS011;43430;48.204;11.556;2023-06-26T13:06:33;5.88;;;5.28;;
57605;SDS011;43430;48.204;11.556;2023-06-26T13:08:58;5.53;;;4.80;;
57605;SDS011;43430;48.204;11.556;2023-06-26T13:11:23;6.53;;;5.15;;
57605;SDS011;43430;48.204;11.556;2023-06-26T13:13:49;6.57;;;5.30;;
57605;SDS011;43430;48.204;11.556;2023-06-26T13:16:14;6.07;;;5.20;;
57605;SDS011;43430;48.204;11.556;2023-06-26T13:18:41;6.43;;;5.75;;
57605;SDS011;43430;48.204;11.556;2023-06-26T13:21:06;7.00;;;5.40;;
57605;SDS011;43430;48.204;11.556;2023-06-26T13:23:31;6.47;;;5.70;;
57605;SDS011;43430;48.204;11.556;2023-06-26T13:25:57;8.52;;;5.20;;
57605;SDS011;43430;48.204;11.556;2023-06-26T13:28:22;7.15;;;5.25;;
57605;SDS011;43430;48.204;11.556;2023-06-26T13:30:47;6.32;;;5.72;;
57605;SDS011;43430;48.204;11.556;2023-06-26T13:33:13;6.10;;;5.25;;
57605;SDS011;43430;48.204;11.556;2023-06-26T13:35:39;6.55;;;5.82;;
57605;SDS011;43430;48.204;11.556;2023-06-26T13:38:04;6.22;;;5.60;;
57605;SDS011;43430;48.204;11.556;2023-06-26T13:40:29;9.63;;;5.50;;
57605;SDS011;43430;48.204;11.556;2023-06-26T13:42:55;5.93;;;5.32;;
57605;SDS011;43430;48.204;11.556;2023-06-26T13:45:20;9.18;;;5.90;;
57605;SDS011;43430;48.204;11.556;2023-06-26T13:47:45;8.60;;;6.05;;
57605;SDS011;43430;48.204;11.556;2023-06-26T13:50:11;7.93;;;5.90;;
57605;SDS011;43430;48.204;11.556;2023-06-26T13:52:36;8.25;;;5.30;;
57605;SDS011;43430;48.204;11.556;2023-06-26T13:55:01;6.88;;;5.50;;
57605;SDS011;43430;48.204;11.556;2023-06-26T13:57:30;6.20;;;5.32;;
57605;SDS011;43430;48.204;11.556;2023-06-26T13:59:56;7.40;;;5.75;;
57605;SDS011;43430;48.204;11.556;2023-06-26T14:02:22;6.05;;;5.05;;
57605;SDS011;43430;48.204;11.556;2023-06-26T14:04:47;7.10;;;5.05;;
57605;SDS011;43430;48.204;11.556;2023-06-26T14:07:12;7.13;;;5.72;;
57605;SDS011;43430;48.204;11.556;2023-06-26T14:09:38;5.55;;;4.78;;
57605;SDS011;43430;48.204;11.556;2023-06-26T14:12:03;8.32;;;5.28;;
57605;SDS011;43430;48.204;11.556;2023-06-26T14:14:29;7.85;;;5.57;;
57605;SDS011;43430;48.204;11.556;2023-06-26T14:16:55;6.53;;;5.53;;
57605;SDS011;43430;48.204;11.556;2023-06-26T14:19:20;6.10;;;5.03;;
57605;SDS011;43430;48.204;11.556;2023-06-26T14:21:45;6.20;;;5.45;;
57605;SDS011;43430;48.204;11.556;2023-06-26T14:24:11;6.18;;;5.57;;
57605;SDS011;43430;48.204;11.556;2023-06-26T14:26:36;8.30;;;6.05;;
57605;SDS011;43430;48.204;11.556;2023-06-26T14:29:02;6.45;;;5.85;;
57605;SDS011;43430;48.204;11.556;2023-06-26T14:31:27;6.88;;;6.03;;
57605;SDS011;43430;48.204;11.556;2023-06-26T14:33:53;7.70;;;5.97;;
57605;SDS011;43430;48.204;11.556;2023-06-26T14:36:18;7.45;;;6.30;;
57605;SDS011;43430;48.204;11.556;2023-06-26T14:38:44;7.13;;;6.32;;
57605;SDS011;43430;48.204;11.556;2023-06-26T14:41:09;6.60;;;5.97;;
57605;SDS011;43430;48.204;11.556;2023-06-26T14:43:35;6.93;;;5.80;;
57605;SDS011;43430;48.204;11.556;2023-06-26T14:46:00;6.85;;;6.15;;
57605;SDS011;43430;48.204;11.556;2023-06-26T14:48:25;8.85;;;5.70;;